createdAt,value
2018-06-05T00:01:41.136Z,100645.56
2018-06-05T00:04:07.752Z,100645.56
2018-06-05T00:06:34.364Z,100650.20
2018-06-05T00:09:00.980Z,100645.72
2018-06-05T00:11:27.595Z,100651.19
2018-06-05T00:13:54.216Z,100652.36
2018-06-05T00:16:20.827Z,100647.88
2018-06-05T00:18:47.472Z,100648.97
2018-06-05T00:21:14.092Z,100644.98
2018-06-05T00:23:40.703Z,100643.66
2018-06-05T00:26:07.328Z,100649.37
2018-06-05T00:28:34.812Z,100644.64
2018-06-05T00:31:01.914Z,100646.96
2018-06-05T00:33:28.560Z,100648.62
2018-06-05T00:35:56.175Z,100648.62
2018-06-05T00:38:23.783Z,100655.61
2018-06-05T00:40:51.331Z,100652.52
2018-06-05T00:43:18.852Z,100652.02
2018-06-05T00:45:49.908Z,100656.34
2018-06-05T00:48:16.644Z,100652.28
2018-06-05T00:50:43.289Z,100653.77
2018-06-05T00:53:09.897Z,100658.08
2018-06-05T00:55:36.515Z,100648.95
2018-06-05T00:58:03.132Z,100648.95
2018-06-05T01:00:30.683Z,100639.65
2018-06-05T01:02:57.293Z,100646.29
2018-06-05T01:05:23.947Z,100642.77
2018-06-05T01:07:51.479Z,100636.99
2018-06-05T01:10:18.099Z,100644.25
2018-06-05T01:12:44.715Z,100646.57
2018-06-05T01:15:11.333Z,100637.61
2018-06-05T01:17:38.727Z,100638.78
2018-06-05T01:20:05.345Z,100637.77
2018-06-05T01:22:32.936Z,100637.61
2018-06-05T01:24:59.590Z,100633.63
2018-06-05T01:27:26.211Z,100636.11
2018-06-05T01:29:53.759Z,100638.27
2018-06-05T01:32:20.380Z,100638.27
2018-06-05T01:34:48.044Z,100634.91
2018-06-05T01:37:14.668Z,100631.42
2018-06-05T01:39:41.286Z,100631.75
2018-06-05T01:42:07.908Z,100634.41
2018-06-05T01:44:34.532Z,100632.12
2018-06-05T01:47:01.158Z,100626.11
2018-06-05T01:49:33.582Z,100621.97
2018-06-05T01:52:00.199Z,100622.90
2018-06-05T01:54:26.817Z,100625.61
2018-06-05T01:56:54.313Z,100625.55
2018-06-05T01:59:21.191Z,100617.25
2018-06-05T02:01:47.916Z,100621.45
2018-06-05T02:04:14.532Z,100614.59
2018-06-05T02:06:41.156Z,100615.09
2018-06-05T02:09:07.783Z,100611.27
2018-06-05T02:11:34.413Z,100613.27
2018-06-05T02:14:01.035Z,100612.22
2018-06-05T02:16:27.676Z,100606.79
2018-06-05T02:18:54.325Z,100607.47
2018-06-05T02:21:21.033Z,100612.61
2018-06-05T02:23:47.655Z,100610.90
2018-06-05T02:26:14.280Z,100618.24
2018-06-05T02:28:41.003Z,100613.06
2018-06-05T02:31:07.709Z,100612.22
2018-06-05T02:33:34.341Z,100614.05
2018-06-05T02:36:01.006Z,100611.05
2018-06-05T02:38:27.639Z,100613.22
2018-06-05T02:40:54.304Z,100627.20
2018-06-05T02:43:20.962Z,100620.19
2018-06-05T02:45:47.625Z,100615.38
2018-06-05T02:48:14.289Z,100621.84
2018-06-05T02:50:40.912Z,100622.02
2018-06-05T02:53:07.544Z,100625.38
2018-06-05T02:55:34.167Z,100627.48
2018-06-05T02:58:00.797Z,100627.81
2018-06-05T03:00:27.420Z,100628.38
2018-06-05T03:02:54.093Z,100623.16
2018-06-05T03:05:20.733Z,100632.35
2018-06-05T03:07:47.353Z,100637.33
2018-06-05T03:10:14.008Z,100637.61
2018-06-05T03:12:40.636Z,100640.81
2018-06-05T03:15:07.284Z,100639.77
2018-06-05T03:17:33.904Z,100642.27
2018-06-05T03:20:00.655Z,100636.94
2018-06-05T03:22:27.276Z,100635.78
2018-06-05T03:24:53.947Z,100644.59
2018-06-05T03:27:20.560Z,100644.25
2018-06-05T03:29:47.184Z,100650.73
2018-06-05T03:32:13.840Z,100650.73
2018-06-05T03:34:40.464Z,100654.22
2018-06-05T03:37:07.780Z,100650.60
2018-06-05T03:39:34.403Z,100647.73
2018-06-05T03:42:01.018Z,100654.03
2018-06-05T03:44:27.680Z,100654.37
2018-06-05T03:46:54.445Z,100650.20
2018-06-05T03:49:21.094Z,100651.17
2018-06-05T03:51:47.747Z,100650.20
2018-06-05T03:54:14.364Z,100647.12
2018-06-05T03:56:41.042Z,100651.38
2018-06-05T03:59:07.699Z,100649.34
2018-06-05T04:01:34.320Z,100652.42
2018-06-05T04:04:00.980Z,100650.05
2018-06-05T04:06:27.600Z,100652.86
2018-06-05T04:08:54.324Z,100657.68
2018-06-05T04:11:20.948Z,100653.55
2018-06-05T04:13:47.612Z,100658.52
2018-06-05T04:16:15.090Z,100661.78
2018-06-05T04:18:41.752Z,100662.00
2018-06-05T04:21:08.420Z,100661.35
2018-06-05T04:23:35.046Z,100660.58
2018-06-05T04:26:01.709Z,100664.72
2018-06-05T04:28:28.392Z,100661.35
2018-06-05T04:30:55.014Z,100662.67
2018-06-05T04:33:21.656Z,100666.38
2018-06-05T04:35:48.284Z,100664.22
2018-06-05T04:38:14.901Z,100668.54
2018-06-05T04:40:41.528Z,100673.41
2018-06-05T04:43:08.168Z,100672.73
2018-06-05T04:45:34.801Z,100670.70
2018-06-05T04:48:01.425Z,100667.55
2018-06-05T04:50:28.100Z,100677.34
2018-06-05T04:52:54.736Z,100672.34
2018-06-05T04:55:21.351Z,100676.50
2018-06-05T04:57:47.986Z,100676.02
2018-06-05T05:00:14.623Z,100682.03
2018-06-05T05:02:41.248Z,100680.49
2018-06-05T05:05:07.875Z,100680.92
2018-06-05T05:07:34.499Z,100682.03
2018-06-05T05:10:01.110Z,100686.64
2018-06-05T05:12:27.732Z,100688.17
2018-06-05T05:14:54.349Z,100687.68
2018-06-05T05:17:20.973Z,100687.34
2018-06-05T05:19:47.603Z,100693.16
2018-06-05T05:22:14.223Z,100697.47
2018-06-05T05:24:40.839Z,100698.92
2018-06-05T05:27:07.469Z,100702.13
2018-06-05T05:29:34.096Z,100707.27
2018-06-05T05:32:00.802Z,100708.59
2018-06-05T05:34:27.424Z,100710.88
2018-06-05T05:36:54.084Z,100725.02
2018-06-05T05:39:20.709Z,100725.02
2018-06-05T05:41:47.341Z,100728.30
2018-06-05T05:44:13.964Z,100726.81
2018-06-05T05:46:40.593Z,100727.67
2018-06-05T05:49:07.215Z,100728.14
2018-06-05T05:51:33.833Z,100731.66
2018-06-05T05:54:00.452Z,100730.80
2018-06-05T05:56:27.433Z,100736.26
2018-06-05T05:58:54.064Z,100738.30
2018-06-05T06:01:20.687Z,100740.39
2018-06-05T06:03:47.321Z,100747.88
2018-06-05T06:06:13.984Z,100747.53
2018-06-05T06:08:40.650Z,100752.00
2018-06-05T06:11:07.289Z,100757.78
2018-06-05T06:13:33.961Z,100755.62
2018-06-05T06:16:00.584Z,100752.06
2018-06-05T06:18:27.220Z,100757.94
2018-06-05T06:20:53.840Z,100760.59
2018-06-05T06:23:20.464Z,100761.17
2018-06-05T06:25:47.084Z,100761.36
2018-06-05T06:28:13.705Z,100756.88
2018-06-05T06:30:40.328Z,100765.28
2018-06-05T06:33:06.948Z,100757.59
2018-06-05T06:35:33.570Z,100760.87
2018-06-05T06:38:00.188Z,100763.40
2018-06-05T06:40:26.924Z,100765.56
2018-06-05T06:42:53.548Z,100768.71
2018-06-05T06:45:20.336Z,100771.70
2018-06-05T06:47:46.960Z,100776.68
2018-06-05T06:50:13.624Z,100775.69
2018-06-05T06:52:40.247Z,100776.80
2018-06-05T06:55:06.900Z,100778.00
2018-06-05T06:57:33.548Z,100781.50
2018-06-05T07:00:00.216Z,100789.23
2018-06-05T07:02:26.844Z,100788.47
2018-06-05T07:04:53.464Z,100787.14
2018-06-05T07:07:20.080Z,100786.59
2018-06-05T07:09:46.743Z,100787.58
2018-06-05T07:12:13.441Z,100785.97
2018-06-05T07:14:40.059Z,100787.64
2018-06-05T07:17:07.061Z,100792.20
2018-06-05T07:19:33.680Z,100789.89
2018-06-05T07:22:00.300Z,100791.06
2018-06-05T07:24:26.925Z,100791.06
2018-06-05T07:26:53.544Z,100796.37
2018-06-05T07:29:20.169Z,100804.34
2018-06-05T07:31:46.920Z,100801.50
2018-06-05T07:34:13.544Z,100800.85
2018-06-05T07:36:40.212Z,100803.31
2018-06-05T07:39:07.220Z,100801.98
2018-06-05T07:41:33.977Z,100808.97
2018-06-05T07:44:00.648Z,100812.45
2018-06-05T07:46:27.334Z,100813.78
2018-06-05T07:48:53.949Z,100816.94
2018-06-05T07:51:20.608Z,100816.78
2018-06-05T07:53:47.232Z,100810.98
2018-06-05T07:56:13.856Z,100816.10
2018-06-05T07:58:40.525Z,100820.77
2018-06-05T08:01:07.149Z,100824.41
2018-06-05T08:03:33.808Z,100822.09
2018-06-05T08:06:00.623Z,100826.23
2018-06-05T08:08:27.252Z,100817.05
2018-06-05T08:10:53.872Z,100820.77
2018-06-05T08:13:20.495Z,100821.75
2018-06-05T08:15:47.116Z,100817.95
2018-06-05T08:18:13.788Z,100820.27
2018-06-05T08:20:40.411Z,100823.08
2018-06-05T08:23:07.124Z,100825.89
2018-06-05T08:25:33.755Z,100826.56
2018-06-05T08:28:00.409Z,100822.37
2018-06-05T08:30:27.038Z,100819.37
2018-06-05T08:32:53.663Z,100821.53
2018-06-05T08:35:20.293Z,100823.35
2018-06-05T08:37:46.950Z,100827.67
2018-06-05T08:40:13.617Z,100827.00
2018-06-05T08:42:40.248Z,100830.48
2018-06-05T08:45:06.906Z,100839.35
2018-06-05T08:47:33.524Z,100843.98
2018-06-05T08:50:00.188Z,100837.84
2018-06-05T08:52:26.805Z,100841.33
2018-06-05T08:54:53.416Z,100836.97
2018-06-05T08:57:20.040Z,100841.17
2018-06-05T08:59:46.693Z,100842.50
2018-06-05T09:02:13.312Z,100840.83
2018-06-05T09:04:39.975Z,100843.98
2018-06-05T09:07:06.596Z,100844.32
2018-06-05T09:09:33.220Z,100847.47
2018-06-05T09:11:59.845Z,100846.64
2018-06-05T09:14:26.472Z,100841.52
2018-06-05T09:16:53.096Z,100846.33
2018-06-05T09:19:19.713Z,100846.98
2018-06-05T09:21:46.344Z,100851.23
2018-06-05T09:24:12.971Z,100850.05
2018-06-05T09:26:39.605Z,100848.08
2018-06-05T09:29:06.271Z,100848.23
2018-06-05T09:31:32.928Z,100850.33
2018-06-05T09:33:59.588Z,100849.91
2018-06-05T09:36:26.204Z,100854.23
2018-06-05T09:38:52.820Z,100849.78
2018-06-05T09:41:19.445Z,100854.88
2018-06-05T09:43:46.069Z,100861.02
2018-06-05T09:46:12.758Z,100859.69
2018-06-05T09:48:39.408Z,100860.03
2018-06-05T09:51:06.112Z,100852.71
2018-06-05T09:53:32.745Z,100862.16
2018-06-05T09:55:59.368Z,100866.67
2018-06-05T09:58:26.108Z,100863.33
2018-06-05T10:00:53.017Z,100862.84
2018-06-05T10:03:20.080Z,100870.23
2018-06-05T10:05:46.700Z,100862.98
2018-06-05T10:08:13.410Z,100864.51
2018-06-05T10:10:40.025Z,100868.30
2018-06-05T10:13:06.640Z,100871.48
2018-06-05T10:15:33.267Z,100868.64
2018-06-05T10:17:59.892Z,100874.45
2018-06-05T10:20:26.777Z,100870.58
2018-06-05T10:22:53.455Z,100868.30
2018-06-05T10:25:20.072Z,100872.47
2018-06-05T10:27:46.766Z,100876.45
2018-06-05T10:30:13.391Z,100870.16
2018-06-05T10:32:40.052Z,100870.46
2018-06-05T10:35:06.681Z,100877.78
2018-06-05T10:37:33.340Z,100873.11
2018-06-05T10:39:59.965Z,100877.29
2018-06-05T10:42:26.593Z,100879.45
2018-06-05T10:44:53.217Z,100877.29
2018-06-05T10:47:19.833Z,100880.93
2018-06-05T10:49:46.458Z,100882.11
2018-06-05T10:52:13.081Z,100882.33
2018-06-05T10:54:39.714Z,100885.75
2018-06-05T10:57:06.341Z,100876.61
2018-06-05T10:59:32.965Z,100879.11
2018-06-05T11:01:59.672Z,100875.47
2018-06-05T11:04:26.291Z,100878.50
2018-06-05T11:06:52.908Z,100876.34
2018-06-05T11:09:19.577Z,100878.42
2018-06-05T11:11:46.244Z,100883.73
2018-06-05T11:14:12.865Z,100882.59
2018-06-05T11:16:39.491Z,100885.26
2018-06-05T11:19:06.107Z,100884.30
2018-06-05T11:21:32.725Z,100884.57
2018-06-05T11:23:59.347Z,100879.67
2018-06-05T11:26:26.012Z,100889.23
2018-06-05T11:28:53.616Z,100884.91
2018-06-05T11:31:20.378Z,100888.90
2018-06-05T11:33:47.037Z,100896.52
2018-06-05T11:36:13.753Z,100891.36
2018-06-05T11:38:40.373Z,100892.88
2018-06-05T11:41:07.005Z,100889.88
2018-06-05T11:43:33.629Z,100882.97
2018-06-05T11:46:00.296Z,100886.23
2018-06-05T11:48:26.949Z,100882.59
2018-06-05T11:50:53.689Z,100887.08
2018-06-05T11:53:20.308Z,100888.97
2018-06-05T11:55:46.972Z,100886.73
2018-06-05T11:58:13.593Z,100894.20
2018-06-05T12:00:40.239Z,100895.04
2018-06-05T12:03:06.866Z,100896.10
2018-06-05T12:05:33.515Z,100891.28
2018-06-05T12:08:00.139Z,100888.90
2018-06-05T12:10:26.760Z,100889.39
2018-06-05T12:12:53.425Z,100893.10
2018-06-05T12:15:20.044Z,100894.06
2018-06-05T12:17:46.686Z,100891.55
2018-06-05T12:20:13.344Z,100883.25
2018-06-05T12:22:39.969Z,100876.45
2018-06-05T12:25:06.592Z,100875.96
2018-06-05T12:27:33.212Z,100875.84
2018-06-05T12:29:59.837Z,100873.19
2018-06-05T12:32:26.491Z,100876.53
2018-06-05T12:34:53.113Z,100871.64
2018-06-05T12:37:19.729Z,100870.04
2018-06-05T12:39:46.476Z,100869.81
2018-06-05T12:42:13.097Z,100871.02
2018-06-05T12:44:39.735Z,100865.00
2018-06-05T12:47:06.360Z,100864.66
2018-06-05T12:49:32.976Z,100861.93
2018-06-05T12:51:59.601Z,100859.50
2018-06-05T12:54:26.221Z,100863.52
2018-06-05T12:56:52.836Z,100858.86
2018-06-05T12:59:19.468Z,100851.72
2018-06-05T13:01:46.125Z,100845.31
2018-06-05T13:04:12.778Z,100842.77
2018-06-05T13:06:39.435Z,100839.92
2018-06-05T13:09:06.733Z,100845.09
2018-06-05T13:11:33.349Z,100845.09
2018-06-05T13:14:01.070Z,100839.92
2018-06-05T13:16:27.712Z,100839.44
2018-06-05T13:18:54.373Z,100840.54
2018-06-05T13:21:21.000Z,100830.63
2018-06-05T13:23:47.668Z,100832.80
2018-06-05T13:26:14.289Z,100840.05
2018-06-05T13:28:40.911Z,100835.11
2018-06-05T13:31:07.624Z,100830.70
2018-06-05T13:33:34.253Z,100830.63
2018-06-05T13:36:01.701Z,100825.44
2018-06-05T13:38:28.325Z,100830.75
2018-06-05T13:40:55.901Z,100825.33
2018-06-05T13:43:22.525Z,100828.47
2018-06-05T13:45:49.152Z,100829.08
2018-06-05T13:48:15.785Z,100826.31
2018-06-05T13:50:42.411Z,100822.52
2018-06-05T13:53:09.064Z,100822.52
2018-06-05T13:55:35.748Z,100823.35
2018-06-05T13:58:02.377Z,100820.84
2018-06-05T14:00:29.001Z,100815.88
2018-06-05T14:02:55.625Z,100806.86
2018-06-05T14:05:22.247Z,100813.31
2018-06-05T14:07:48.880Z,100808.27
2018-06-05T14:10:15.504Z,100806.17
2018-06-05T14:12:42.182Z,100810.00
2018-06-05T14:15:09.556Z,100805.34
2018-06-05T14:17:36.221Z,100803.78
2018-06-05T14:20:02.892Z,100803.02
2018-06-05T14:22:29.573Z,100798.75
2018-06-05T14:24:56.194Z,100802.94
2018-06-05T14:27:22.827Z,100802.91
2018-06-05T14:29:49.457Z,100797.99
2018-06-05T14:32:16.125Z,100797.77
2018-06-05T14:34:42.753Z,100798.66
2018-06-05T14:37:09.373Z,100803.05
2018-06-05T14:39:36.037Z,100805.31
2018-06-05T14:42:02.661Z,100803.48
2018-06-05T14:44:29.341Z,100796.53
2018-06-05T14:46:55.965Z,100789.27
2018-06-05T14:49:22.589Z,100794.19
2018-06-05T14:51:49.253Z,100794.80
2018-06-05T14:54:15.888Z,100792.30
2018-06-05T14:56:42.517Z,100791.12
2018-06-05T14:59:09.953Z,100781.57
2018-06-05T15:01:36.576Z,100787.23
2018-06-05T15:04:03.197Z,100790.14
2018-06-05T15:06:29.813Z,100795.14
2018-06-05T15:08:56.435Z,100789.80
2018-06-05T15:11:23.101Z,100789.89
2018-06-05T15:13:49.733Z,100786.16
2018-06-05T15:16:16.421Z,100786.72
2018-06-05T15:18:43.049Z,100780.06
2018-06-05T15:21:09.665Z,100782.55
2018-06-05T15:23:36.331Z,100779.30
2018-06-05T15:26:02.953Z,100778.01
2018-06-05T15:28:29.581Z,100779.41
2018-06-05T15:30:57.191Z,100784.06
2018-06-05T15:33:23.815Z,100777.84
2018-06-05T15:35:50.477Z,100771.66
2018-06-05T15:38:17.140Z,100778.47
2018-06-05T15:40:43.792Z,100772.70
2018-06-05T15:43:10.448Z,100768.83
2018-06-05T15:45:37.078Z,100770.53
2018-06-05T15:48:03.722Z,100774.86
2018-06-05T15:50:30.414Z,100773.25
2018-06-05T15:52:57.036Z,100769.55
2018-06-05T15:55:23.656Z,100758.63
2018-06-05T15:57:50.278Z,100761.83
2018-06-05T16:00:16.901Z,100762.13
2018-06-05T16:02:43.528Z,100761.13
2018-06-05T16:05:10.149Z,100763.17
2018-06-05T16:07:36.777Z,100755.92
2018-06-05T16:10:03.440Z,100755.70
2018-06-05T16:12:30.065Z,100765.06
2018-06-05T16:14:56.693Z,100761.73
2018-06-05T16:17:23.352Z,100763.39
2018-06-05T16:19:49.989Z,100767.81
2018-06-05T16:22:16.611Z,100778.34
2018-06-05T16:24:43.237Z,100775.20
2018-06-05T16:27:09.940Z,100773.47
2018-06-05T16:29:36.559Z,100774.67
2018-06-05T16:32:03.184Z,100775.63
2018-06-05T16:34:29.844Z,100774.42
2018-06-05T16:36:56.465Z,100768.61
2018-06-05T16:39:23.097Z,100773.41
2018-06-05T16:41:49.728Z,100773.47
2018-06-05T16:44:16.393Z,100769.85
2018-06-05T16:46:43.017Z,100768.96
2018-06-05T16:49:09.673Z,100769.27
2018-06-05T16:51:36.304Z,100769.98
2018-06-05T16:54:02.928Z,100769.98
2018-06-05T16:56:29.560Z,100770.62
2018-06-05T16:58:56.184Z,100769.58
2018-06-05T17:01:22.829Z,100769.14
2018-06-05T17:03:49.462Z,100768.41
2018-06-05T17:06:16.097Z,100769.85
2018-06-05T17:08:42.812Z,100770.38
2018-06-05T17:11:09.442Z,100765.50
2018-06-05T17:13:36.069Z,100768.38
2018-06-05T17:16:02.712Z,100767.63
2018-06-05T17:18:29.360Z,100767.42
2018-06-05T17:20:55.989Z,100772.23
2018-06-05T17:23:22.633Z,100778.26
2018-06-05T17:25:49.264Z,100774.39
2018-06-05T17:28:15.902Z,100776.88
2018-06-05T17:30:42.645Z,100777.36
2018-06-05T17:33:09.286Z,100783.02
2018-06-05T17:35:35.909Z,100776.13
2018-06-05T17:38:02.537Z,100778.78
2018-06-05T17:40:29.206Z,100780.70
2018-06-05T17:42:55.816Z,100787.83
2018-06-05T17:45:22.452Z,100789.41
2018-06-05T17:47:49.079Z,100784.44
2018-06-05T17:50:15.707Z,100783.54
2018-06-05T17:52:42.324Z,100789.31
2018-06-05T17:55:08.951Z,100794.88
2018-06-05T17:57:35.590Z,100794.53
2018-06-05T18:00:02.253Z,100791.50
2018-06-05T18:02:28.889Z,100805.84
2018-06-05T18:04:57.645Z,100803.03
2018-06-05T18:07:24.340Z,100802.69
2018-06-05T18:09:50.985Z,100804.79
2018-06-05T18:12:18.593Z,100803.00
2018-06-05T18:14:45.256Z,100805.28
2018-06-05T18:17:12.053Z,100806.27
2018-06-05T18:19:38.909Z,100806.48
2018-06-05T18:22:05.573Z,100810.25
2018-06-05T18:24:32.201Z,100810.81
2018-06-05T18:26:59.136Z,100814.09
2018-06-05T18:29:25.866Z,100816.89
2018-06-05T18:31:54.463Z,100820.20
2018-06-05T18:34:21.120Z,100824.25
2018-06-05T18:36:47.859Z,100831.72
2018-06-05T18:39:14.524Z,100843.45
2018-06-05T18:41:41.157Z,100835.08
2018-06-05T18:44:07.784Z,100843.12
2018-06-05T18:46:34.577Z,100847.94
2018-06-05T18:49:01.243Z,100850.74
2018-06-05T18:51:27.884Z,100849.75
2018-06-05T18:53:54.652Z,100857.72
2018-06-05T18:56:21.324Z,100861.06
2018-06-05T18:58:47.957Z,100863.87
2018-06-05T19:01:14.629Z,100869.45
2018-06-05T19:03:41.304Z,100873.17
2018-06-05T19:06:07.999Z,100885.13
2018-06-05T19:08:34.636Z,100889.94
2018-06-05T19:11:01.297Z,100890.52
2018-06-05T19:13:27.930Z,100890.36
2018-06-05T19:15:54.566Z,100900.98
2018-06-05T19:18:21.221Z,100901.81
2018-06-05T19:20:47.853Z,100910.44
2018-06-05T19:23:14.593Z,100918.59
2018-06-05T19:25:41.246Z,100924.28
2018-06-05T19:28:07.927Z,100930.47
2018-06-05T19:30:34.633Z,100927.81
2018-06-05T19:33:01.246Z,100940.48
2018-06-05T19:35:27.901Z,100945.30
2018-06-05T19:37:54.525Z,100954.02
2018-06-05T19:40:21.213Z,100957.02
2018-06-05T19:42:47.881Z,100958.08
2018-06-05T19:45:14.614Z,100959.60
2018-06-05T19:47:41.253Z,100963.17
2018-06-05T19:50:07.900Z,100963.58
2018-06-05T19:52:34.534Z,100965.14
2018-06-05T19:55:01.212Z,100969.27
2018-06-05T19:57:27.842Z,100974.20
2018-06-05T19:59:54.473Z,100978.68
2018-06-05T20:02:22.044Z,100975.45
2018-06-05T20:04:48.685Z,100980.42
2018-06-05T20:07:15.353Z,100983.30
2018-06-05T20:09:42.016Z,100978.90
2018-06-05T20:12:08.684Z,100981.55
2018-06-05T20:14:35.336Z,100984.47
2018-06-05T20:17:02.425Z,100985.11
2018-06-05T20:19:29.084Z,100998.38
2018-06-05T20:21:55.789Z,100995.78
2018-06-05T20:24:22.516Z,100994.40
2018-06-05T20:26:49.142Z,100998.09
2018-06-05T20:29:15.772Z,100999.83
2018-06-05T20:31:42.449Z,101003.23
2018-06-05T20:34:09.122Z,101000.66
2018-06-05T20:36:35.790Z,101007.73
2018-06-05T20:39:02.470Z,101009.46
2018-06-05T20:41:29.121Z,101020.80
2018-06-05T20:43:55.793Z,101012.27
2018-06-05T20:46:22.424Z,101020.80
2018-06-05T20:48:49.143Z,101030.01
2018-06-05T20:51:15.767Z,101026.86
2018-06-05T20:53:42.436Z,101031.83
2018-06-05T20:56:09.066Z,101032.17
2018-06-05T20:58:35.733Z,101034.83
2018-06-05T21:01:02.356Z,101037.89
2018-06-05T21:03:28.985Z,101038.52
2018-06-05T21:05:56.641Z,101042.80
2018-06-05T21:08:23.303Z,101045.10
2018-06-05T21:10:49.971Z,101044.73
2018-06-05T21:13:16.595Z,101041.67
2018-06-05T21:15:43.266Z,101041.09
2018-06-05T21:18:09.904Z,101040.55
2018-06-05T21:20:36.531Z,101049.34
2018-06-05T21:23:03.161Z,101058.78
2018-06-05T21:25:29.781Z,101060.36
2018-06-05T21:27:56.416Z,101065.47
2018-06-05T21:30:23.063Z,101065.14
2018-06-05T21:32:49.701Z,101074.67
2018-06-05T21:35:16.381Z,101074.18
2018-06-05T21:37:43.005Z,101076.58
2018-06-05T21:40:09.676Z,101073.83
2018-06-05T21:42:36.372Z,101076.30
2018-06-05T21:45:03.024Z,101074.34
2018-06-05T21:47:29.648Z,101075.09
2018-06-05T21:49:56.289Z,101078.67
2018-06-05T21:52:22.915Z,101082.55
2018-06-05T21:54:49.545Z,101085.84
2018-06-05T21:57:16.168Z,101082.70
2018-06-05T21:59:42.797Z,101088.99
2018-06-05T22:04:35.541Z,101097.53
2018-06-05T22:07:02.165Z,101098.03
2018-06-05T22:09:28.789Z,101105.15
2018-06-05T22:11:55.408Z,101109.38
2018-06-05T22:14:22.023Z,101106.94
2018-06-05T22:19:15.743Z,101115.08
2018-06-05T22:21:42.380Z,101114.06
2018-06-05T22:24:09.004Z,101115.29
2018-06-05T22:26:35.621Z,101122.94
2018-06-05T22:29:02.252Z,101119.20
2018-06-05T22:31:28.886Z,101117.48
2018-06-05T22:33:55.516Z,101125.08
2018-06-05T22:36:22.932Z,101121.23
2018-06-05T22:38:49.556Z,101128.70
2018-06-05T22:41:16.172Z,101128.22
2018-06-05T22:43:42.935Z,101132.34
2018-06-05T22:46:09.553Z,101126.89
2018-06-05T22:48:36.181Z,101123.41
2018-06-05T22:51:02.797Z,101128.56
2018-06-05T22:53:29.421Z,101130.17
2018-06-05T22:55:56.042Z,101131.10
2018-06-05T22:58:22.668Z,101131.02
2018-06-05T23:00:49.313Z,101128.36
2018-06-05T23:03:15.930Z,101127.28
2018-06-05T23:05:42.557Z,101132.83
2018-06-05T23:08:09.191Z,101128.27
2018-06-05T23:10:35.812Z,101133.29
2018-06-05T23:13:02.465Z,101130.03
2018-06-05T23:15:29.085Z,101126.10
2018-06-05T23:17:55.701Z,101132.73
2018-06-05T23:20:22.324Z,101135.25
2018-06-05T23:22:48.946Z,101131.00
2018-06-05T23:25:15.568Z,101134.62
2018-06-05T23:27:42.192Z,101129.06
2018-06-05T23:30:08.808Z,101133.82
2018-06-05T23:32:35.437Z,101137.29
2018-06-05T23:35:02.976Z,101135.98
2018-06-05T23:37:29.596Z,101135.29
2018-06-05T23:39:56.219Z,101133.96
2018-06-05T23:42:22.893Z,101139.86
2018-06-05T23:44:49.488Z,101142.75
2018-06-05T23:47:16.107Z,101142.41
2018-06-05T23:49:42.771Z,101144.29
2018-06-05T23:52:09.395Z,101148.06
2018-06-05T23:54:36.103Z,101146.19
2018-06-05T23:57:02.727Z,101143.70
2018-06-05T23:59:29.349Z,101146.25
